CMA weather

Camarillo Airport
Camarillo, California, United States

Public forecast

Using degrees Fahrenheit for public forecast. Weather courtesy of forecast.io.

Current aviation weather report (METAR) for Camarillo Airport

Retrieved 2019/10/21 05:55 UTC (8 minutes ago):

KCMA 210555Z AUTO 00000KT 10SM CLR 18/08 A2994 RMK AO2 SLP146 T01780083 10267 20161 53012

Aviation forecast (TAF) for Camarillo Airport

Retrieved 2019/10/21 06:35 UTC (0 seconds ago):

TAF KCMA 210535Z 2106/2206 06006KT P6SM SKC FM211400 07012KT P6SM SKC FM212200 24008KT P6SM SKC FM220300 VRB03KT P6SM SKC